Time;durP1;ratioP1;P1;durP2;ratioP2;P2;SDS_P1;SDS_P2;PMS_P1;PMS_P2;Temp;Humidity;BMP_temperature;BMP_pressure;BME280_temperature;BME280_humidity;BME280_pressure;Samples;Min_cycle;Max_cycle;Signal;HPM_P1;HPM_P2
2021/12/05 00:23:46;;;;;;;5.35;1.70;;;7.70;74.10;;;;;;5005356;28;20049;-52
2021/12/05 00:26:18;;;;;;;7.57;2.60;;;7.70;74.10;;;;;;4989682;28;20047;-47
2021/12/05 00:29:08;;;;;;;6.70;2.25;;;7.70;74.10;;;;;;5000304;28;20565;-48
2021/12/05 00:50:51;;;;;;;6.45;1.80;;;7.60;73.80;;;;;;5003660;28;20069;-50
2021/12/05 00:56:27;;;;;;;6.43;1.70;;;7.60;73.60;;;;;;4991182;28;20042;-52
2021/12/05 01:01:49;;;;;;;5.93;1.83;;;7.60;73.70;;;;;;4990447;28;20070;-52
2021/12/05 01:09:49;;;;;;;6.38;1.70;;;7.50;73.60;;;;;;4999416;28;20045;-50
2021/12/05 01:15:12;;;;;;;8.05;1.80;;;7.50;73.70;;;;;;4998903;28;20070;-48
2021/12/05 01:20:57;;;;;;;6.57;1.88;;;7.40;73.50;;;;;;4997613;28;20049;-48
2021/12/05 01:26:20;;;;;;;4.88;1.33;;;7.40;73.60;;;;;;4998296;28;20393;-49
2021/12/05 01:37:04;;;;;;;4.93;1.65;;;7.30;73.70;;;;;;4996983;28;20030;-51
2021/12/05 02:09:49;;;;;;;5.53;1.95;;;7.00;74.20;;;;;;4989276;28;20039;-50
2021/12/05 02:15:11;;;;;;;11.70;1.95;;;7.00;74.30;;;;;;4974215;28;20047;-52
2021/12/05 02:43:25;;;;;;;9.98;2.17;;;6.90;74.50;;;;;;5000586;28;20548;-47
2021/12/05 02:45:54;;;;;;;8.15;1.75;;;6.90;74.70;;;;;;5008998;28;20088;-51
2021/12/05 02:48:24;;;;;;;4.78;1.52;;;6.90;74.80;;;;;;4994614;28;20118;-49
2021/12/05 02:50:52;;;;;;;7.32;1.60;;;6.90;74.90;;;;;;5000737;28;20053;-52
2021/12/05 02:53:31;;;;;;;3.90;1.52;;;7.00;75.00;;;;;;5010010;28;20486;-49
2021/12/05 02:55:59;;;;;;;4.05;1.40;;;7.00;74.90;;;;;;4996306;28;20050;-51
2021/12/05 02:58:47;;;;;;;5.85;1.70;;;7.00;74.90;;;;;;5002791;28;20050;-49
2021/12/05 03:01:22;;;;;;;4.50;1.70;;;7.00;74.80;;;;;;5004140;28;20046;-48
2021/12/05 03:03:52;;;;;;;6.97;1.75;;;7.00;74.60;;;;;;5012141;28;20129;-52
2021/12/05 03:06:24;;;;;;;3.13;1.15;;;7.00;74.50;;;;;;4996453;28;20046;-49
2021/12/05 03:09:12;;;;;;;7.47;1.27;;;7.00;74.40;;;;;;5001426;28;20434;-51
2021/12/05 03:11:40;;;;;;;8.25;1.73;;;7.00;74.30;;;;;;4974030;28;20066;-51
2021/12/05 03:14:13;;;;;;;5.10;1.70;;;7.00;74.20;;;;;;4992328;28;20493;-48
2021/12/05 03:16:41;;;;;;;5.78;2.15;;;7.00;74.10;;;;;;4992027;28;20034;-51
2021/12/05 03:19:12;;;;;;;5.93;1.70;;;6.90;74.10;;;;;;5002330;28;20109;-49
2021/12/05 03:21:41;;;;;;;6.68;1.85;;;6.90;74.10;;;;;;4988976;28;20082;-49
2021/12/05 03:24:14;;;;;;;8.30;1.45;;;6.90;74.20;;;;;;4988254;28;20042;-49
2021/12/05 03:26:46;;;;;;;4.95;1.67;;;7.00;74.20;;;;;;4999078;28;20501;-50
2021/12/05 03:29:18;;;;;;;4.32;1.23;;;6.90;74.20;;;;;;5003465;28;20136;-49
2021/12/05 03:31:46;;;;;;;5.55;1.40;;;6.80;74.20;;;;;;5013145;28;20049;-52
2021/12/05 03:34:21;;;;;;;3.78;1.00;;;6.80;74.20;;;;;;4988342;28;20054;-51
2021/12/05 03:36:53;;;;;;;3.28;1.35;;;6.80;74.20;;;;;;5002204;28;20116;-53
2021/12/05 03:39:23;;;;;;;3.13;1.13;;;6.80;74.20;;;;;;5004962;28;20046;-52
2021/12/05 03:41:54;;;;;;;6.88;1.77;;;6.70;74.20;;;;;;5010488;28;20045;-48
2021/12/05 03:44:27;;;;;;;4.93;1.30;;;6.70;74.30;;;;;;4994689;28;20050;-52
2021/12/05 03:46:59;;;;;;;5.65;1.58;;;6.70;74.50;;;;;;4986437;28;20049;-46
2021/12/05 03:49:28;;;;;;;3.25;1.48;;;6.80;74.60;;;;;;5011631;28;20553;-49
2021/12/05 03:52:04;;;;;;;5.63;1.65;;;6.70;74.50;;;;;;5000211;28;20518;-49
2021/12/05 03:54:34;;;;;;;1.23;0.70;;;6.70;74.40;;;;;;4990806;28;20042;-52
2021/12/05 03:57:02;;;;;;;4.78;0.95;;;6.70;74.50;;;;;;4999424;28;20047;-48
2021/12/05 03:59:34;;;;;;;4.63;1.45;;;6.70;74.50;;;;;;5009990;28;20123;-49
2021/12/05 04:02:05;;;;;;;2.35;1.20;;;6.70;74.50;;;;;;4996809;28;20133;-53
2021/12/05 04:04:39;;;;;;;3.95;1.02;;;6.70;74.50;;;;;;5001095;28;20077;-52
2021/12/05 04:07:09;;;;;;;6.90;1.27;;;6.70;74.60;;;;;;4997624;28;20053;-52
2021/12/05 04:09:41;;;;;;;4.53;1.27;;;6.70;74.60;;;;;;4981425;28;20043;-50
2021/12/05 04:12:09;;;;;;;4.90;1.73;;;6.70;74.80;;;;;;4991055;28;20052;-51
2021/12/05 04:14:43;;;;;;;6.78;1.27;;;6.70;75.00;;;;;;5007057;28;20046;-52
2021/12/05 04:17:14;;;;;;;3.50;1.00;;;6.70;75.10;;;;;;5006904;28;20088;-48
2021/12/05 04:19:42;;;;;;;4.88;1.45;;;6.80;75.20;;;;;;5010938;28;20144;-51
2021/12/05 04:22:17;;;;;;;4.65;1.42;;;6.80;75.20;;;;;;4990884;28;20047;-48
2021/12/05 04:24:47;;;;;;;3.35;1.10;;;6.80;75.10;;;;;;5000706;28;20077;-49
2021/12/05 04:27:18;;;;;;;3.38;0.80;;;6.80;75.10;;;;;;4992254;28;20042;-47
2021/12/05 04:29:45;;;;;;;1.85;0.90;;;6.90;75.00;;;;;;4987648;28;20165;-47
2021/12/05 04:32:14;;;;;;;2.92;0.90;;;6.90;74.90;;;;;;4997219;28;20181;-52
2021/12/05 04:34:41;;;;;;;4.50;1.23;;;6.90;74.70;;;;;;5001956;28;20133;-49
2021/12/05 04:37:09;;;;;;;3.10;1.00;;;6.90;74.60;;;;;;5010022;28;20073;-48
2021/12/05 04:39:41;;;;;;;1.77;0.90;;;6.90;74.40;;;;;;4998782;28;20129;-51
2021/12/05 04:42:09;;;;;;;4.07;1.50;;;7.00;74.30;;;;;;4999317;28;20038;-51
2021/12/05 04:44:38;;;;;;;5.05;1.58;;;6.90;74.30;;;;;;5003255;28;20042;-48
2021/12/05 04:47:07;;;;;;;4.57;1.30;;;7.00;74.30;;;;;;5010461;28;20069;-46
2021/12/05 04:49:34;;;;;;;4.50;1.70;;;7.00;74.30;;;;;;4989247;28;20053;-52
2021/12/05 04:52:04;;;;;;;2.63;0.90;;;6.90;74.30;;;;;;5002420;28;20417;-49
2021/12/05 04:54:31;;;;;;;2.67;0.80;;;7.00;74.20;;;;;;5002137;28;20506;-47
2021/12/05 04:56:58;;;;;;;1.27;1.00;;;6.90;74.10;;;;;;5009729;28;20046;-49
2021/12/05 04:59:34;;;;;;;4.30;1.13;;;6.90;74.00;;;;;;5001904;28;20462;-48
2021/12/05 05:02:02;;;;;;;4.93;1.20;;;6.90;74.10;;;;;;5000485;28;20049;-52
2021/12/05 05:04:42;;;;;;;3.97;1.15;;;6.90;74.20;;;;;;5003105;28;20038;-49
2021/12/05 05:07:19;;;;;;;4.72;1.40;;;6.90;74.30;;;;;;5003348;28;20104;-51
2021/12/05 05:09:50;;;;;;;3.53;1.52;;;7.00;74.40;;;;;;4990361;28;20046;-48
2021/12/05 05:12:18;;;;;;;3.25;1.30;;;7.00;74.40;;;;;;4999057;28;20101;-48
2021/12/05 05:14:46;;;;;;;5.03;1.50;;;7.00;74.30;;;;;;4991220;28;20042;-51
2021/12/05 05:17:13;;;;;;;5.93;1.50;;;7.00;74.30;;;;;;4988899;28;20050;-52
2021/12/05 05:19:49;;;;;;;3.50;1.17;;;7.00;74.30;;;;;;4992282;28;20030;-52
2021/12/05 05:46:27;;;;;;;1.77;0.75;;;7.30;74.40;;;;;;4991012;28;20038;-51
2021/12/05 05:49:13;;;;;;;4.75;1.30;;;7.30;74.30;;;;;;5002808;28;20121;-48
2021/12/05 05:51:42;;;;;;;1.73;0.80;;;7.40;74.30;;;;;;4971563;28;20410;-48
2021/12/05 05:54:09;;;;;;;3.75;1.40;;;7.40;74.20;;;;;;4975903;28;20038;-52
2021/12/05 05:56:40;;;;;;;1.33;0.80;;;7.40;74.00;;;;;;4995177;28;20041;-51
2021/12/05 05:59:22;;;;;;;2.55;0.93;;;7.50;74.00;;;;;;5002169;28;20073;-51
2021/12/05 06:04:20;;;;;;;3.80;0.77;;;7.50;73.80;;;;;;4999352;28;20038;-50
2021/12/05 06:06:52;;;;;;;3.53;0.98;;;7.60;73.80;;;;;;5004762;28;20056;-48
2021/12/05 06:09:19;;;;;;;2.38;0.82;;;7.50;73.70;;;;;;4998062;28;20050;-52
2021/12/05 06:11:46;;;;;;;3.47;0.90;;;7.60;73.70;;;;;;4993055;28;20047;-52
2021/12/05 06:14:13;;;;;;;1.17;0.80;;;7.60;73.50;;;;;;5003652;28;20043;-48
2021/12/05 06:16:42;;;;;;;2.95;1.23;;;7.60;73.40;;;;;;4999949;28;20041;-49
2021/12/05 06:19:09;;;;;;;5.15;1.02;;;7.60;73.30;;;;;;4996416;28;20043;-52
2021/12/05 06:21:37;;;;;;;1.33;0.63;;;7.70;73.40;;;;;;5001274;28;20064;-52
2021/12/05 06:24:07;;;;;;;0.85;0.40;;;7.70;73.30;;;;;;5004687;28;20441;-49
2021/12/05 06:26:35;;;;;;;4.63;0.80;;;7.70;73.10;;;;;;5000456;28;20071;-51
2021/12/05 06:29:17;;;;;;;0.82;0.70;;;7.70;73.10;;;;;;4999374;28;20096;-49
2021/12/05 06:31:59;;;;;;;0.73;0.47;;;7.70;73.00;;;;;;4999025;28;20042;-51
2021/12/05 06:48:27;;;;;;;2.58;0.90;;;7.70;72.60;;;;;;5010404;28;20108;-52
2021/12/05 06:50:57;;;;;;;2.97;0.80;;;7.70;72.70;;;;;;5005135;28;20046;-52
2021/12/05 06:53:24;;;;;;;1.15;0.70;;;7.70;72.60;;;;;;5002901;28;20452;-52
2021/12/05 06:55:53;;;;;;;3.08;0.80;;;7.70;72.70;;;;;;5005989;28;20456;-49
2021/12/05 06:58:22;;;;;;;1.70;0.90;;;7.70;72.70;;;;;;5013544;28;20042;-50
2021/12/05 07:00:54;;;;;;;1.35;0.70;;;7.80;72.60;;;;;;5004120;28;20046;-49
2021/12/05 07:03:23;;;;;;;1.02;0.70;;;7.80;72.50;;;;;;5005202;28;20069;-50
2021/12/05 07:08:23;;;;;;;1.85;0.90;;;7.80;72.40;;;;;;4994436;28;20646;-47
2021/12/05 07:11:05;;;;;;;3.20;1.30;;;7.80;72.50;;;;;;4988869;28;20058;-47
2021/12/05 07:19:44;;;;;;;2.33;0.80;;;7.80;72.50;;;;;;5005197;28;20043;-49
2021/12/05 07:22:23;;;;;;;2.70;1.10;;;7.90;72.60;;;;;;4987225;28;20497;-47
2021/12/05 07:25:11;;;;;;;4.30;0.95;;;7.90;72.60;;;;;;4996696;28;20043;-48
2021/12/05 07:44:00;;;;;;;1.95;1.13;;;7.90;72.80;;;;;;4993314;28;20339;-49
2021/12/05 07:46:27;;;;;;;2.83;1.00;;;7.90;72.90;;;;;;4966830;28;20506;-48
2021/12/05 07:48:54;;;;;;;2.58;0.85;;;7.90;72.90;;;;;;4985654;28;20049;-48
2021/12/05 07:51:26;;;;;;;3.42;1.23;;;7.90;72.80;;;;;;4975940;28;20116;-46
2021/12/05 07:59:38;;;;;;;1.92;1.30;;;8.00;72.90;;;;;;4986377;28;20038;-46
2021/12/05 08:16:10;;;;;;;9.75;8.75;;;8.10;73.10;;;;;;4983360;28;20046;-51
2021/12/05 08:18:41;;;;;;;3.78;2.55;;;8.10;73.20;;;;;;4992002;28;20034;-47
2021/12/05 08:21:09;;;;;;;2.58;1.92;;;8.10;73.20;;;;;;4975008;28;20449;-49
2021/12/05 08:23:36;;;;;;;2.67;1.75;;;8.10;73.80;;;;;;4987729;28;20058;-48
2021/12/05 08:26:07;;;;;;;3.35;1.80;;;8.10;73.30;;;;;;4979261;28;20065;-48
2021/12/05 08:31:26;;;;;;;;;;;8.10;73.40;;;;;;4978666;28;20050;-47
2021/12/05 08:39:45;;;;;;;4.50;2.28;;;8.20;73.20;;;;;;4997935;28;20046;-48
2021/12/05 09:27:29;;;;;;;3.75;2.28;;;8.40;73.20;;;;;;4971272;28;20086;-47
2021/12/05 09:38:36;;;;;;;4.28;2.50;;;8.50;73.10;;;;;;4988267;28;20050;-49
2021/12/05 10:02:49;;;;;;;7.68;3.78;;;8.70;73.20;;;;;;4984484;28;20050;-48
2021/12/05 10:11:15;;;;;;;114.60;47.83;;;8.80;73.20;;;;;;4978278;28;20046;-50
2021/12/05 10:36:06;;;;;;;10.18;7.32;;;9.20;72.60;;;;;;4979612;28;20046;-48
2021/12/05 10:38:51;;;;;;;10.50;7.82;;;9.20;72.60;;;;;;4997248;28;20077;-48
2021/12/05 10:44:07;;;;;;;27.90;22.88;;;9.20;72.90;;;;;;4976546;28;20494;-48
2021/12/05 10:46:39;;;;;;;12.70;8.82;;;9.20;73.00;;;;;;4981099;28;20049;-48
2021/12/05 10:49:09;;;;;;;8.25;5.28;;;9.20;73.10;;;;;;5002464;28;20038;-51
2021/12/05 10:51:47;;;;;;;4.82;3.95;;;9.30;73.30;;;;;;4983933;28;20066;-49
2021/12/05 10:54:23;;;;;;;3.72;2.72;;;9.30;74.00;;;;;;4972503;28;20050;-48
2021/12/05 10:56:54;;;;;;;5.43;2.75;;;9.30;73.30;;;;;;4985000;28;20066;-48
2021/12/05 10:59:35;;;;;;;7.07;5.13;;;9.40;73.40;;;;;;4994560;28;20030;-47
2021/12/05 11:02:08;;;;;;;;;;;9.50;73.20;;;;;;4985828;28;20053;-48
2021/12/05 11:04:42;;;;;;;12.88;8.45;;;9.50;73.10;;;;;;4980994;28;19985;-48
2021/12/05 11:07:12;;;;;;;6.10;4.45;;;9.60;72.90;;;;;;4981571;28;20117;-47
2021/12/05 11:09:43;;;;;;;5.50;3.28;;;9.60;72.70;;;;;;4983989;28;20126;-50
2021/12/05 11:12:18;;;;;;;4.63;2.65;;;9.60;72.40;;;;;;4983727;28;20051;-48
2021/12/05 11:14:53;;;;;;;5.03;2.47;;;9.60;72.20;;;;;;4978223;28;20636;-48
2021/12/05 11:17:28;;;;;;;3.67;2.95;;;9.60;72.40;;;;;;4992233;28;20046;-50
2021/12/05 11:19:58;;;;;;;6.15;2.75;;;9.60;72.20;;;;;;4986947;28;20046;-49
2021/12/05 11:22:49;;;;;;;4.18;2.25;;;9.60;72.40;;;;;;4982112;28;20055;-49
2021/12/05 11:25:27;;;;;;;3.72;3.28;;;9.60;72.10;;;;;;4979154;28;20042;-52
2021/12/05 11:28:08;;;;;;;5.22;3.58;;;9.60;72.40;;;;;;4989492;28;20038;-48
2021/12/05 11:30:37;;;;;;;5.18;4.20;;;9.60;72.40;;;;;;4982293;28;20453;-48
2021/12/05 11:33:17;;;;;;;4.05;3.13;;;9.50;72.30;;;;;;4991097;28;20446;-50
2021/12/05 11:35:50;;;;;;;6.30;3.17;;;9.50;72.20;;;;;;4980267;28;20038;-48
2021/12/05 11:38:23;;;;;;;4.18;2.90;;;9.50;72.00;;;;;;5000555;28;20089;-50
2021/12/05 11:40:58;;;;;;;5.57;2.92;;;9.40;71.80;;;;;;4982043;28;20054;-48
2021/12/05 11:43:39;;;;;;;3.85;2.78;;;9.50;72.00;;;;;;4994931;28;20105;-50
2021/12/05 11:46:07;;;;;;;5.72;3.20;;;9.40;71.80;;;;;;4978956;28;20576;-47
2021/12/05 11:48:43;;;;;;;5.13;4.50;;;9.40;72.10;;;;;;4979094;28;20038;-49
2021/12/05 11:51:20;;;;;;;8.23;7.20;;;9.40;72.10;;;;;;4980075;28;20062;-48
2021/12/05 11:54:08;;;;;;;7.72;4.50;;;9.40;72.40;;;;;;4999608;28;20046;-50
2021/12/05 11:56:34;;;;;;;9.02;5.05;;;9.30;72.60;;;;;;4981792;28;20042;-48
2021/12/05 11:59:08;;;;;;;6.45;4.05;;;9.30;72.80;;;;;;4986105;28;20050;-48
2021/12/05 12:01:42;;;;;;;4.28;3.88;;;9.30;72.70;;;;;;4980361;28;20623;-48
2021/12/05 12:04:12;;;;;;;7.32;4.65;;;9.30;72.90;;;;;;4994060;28;20049;-52
2021/12/05 12:06:41;;;;;;;5.22;3.55;;;9.30;72.80;;;;;;4978751;28;20388;-49
2021/12/05 12:09:13;;;;;;;4.85;3.85;;;9.30;72.90;;;;;;4984694;28;20131;-48
2021/12/05 12:11:40;;;;;;;5.80;3.40;;;9.30;73.00;;;;;;4980052;28;20520;-49
2021/12/05 12:14:06;;;;;;;6.65;3.80;;;9.30;73.10;;;;;;4997444;28;20120;-49
2021/12/05 12:16:34;;;;;;;4.53;3.17;;;9.30;73.30;;;;;;4978254;28;20042;-51
2021/12/05 12:19:05;;;;;;;5.85;2.83;;;9.30;73.50;;;;;;4998696;28;20126;-48
2021/12/05 12:21:39;;;;;;;2.55;2.35;;;9.30;73.50;;;;;;4984217;28;20045;-48
2021/12/05 12:24:06;;;;;;;8.48;5.20;;;9.40;73.70;;;;;;4995651;28;20413;-50
2021/12/05 12:26:33;;;;;;;5.68;4.68;;;9.40;73.70;;;;;;4984477;28;20101;-49
2021/12/05 12:29:04;;;;;;;6.20;3.72;;;9.40;73.60;;;;;;4984841;28;20050;-49
2021/12/05 12:31:35;;;;;;;5.65;3.40;;;9.50;73.60;;;;;;4976253;28;20050;-50
2021/12/05 12:34:08;;;;;;;4.47;3.70;;;9.50;73.60;;;;;;4985505;28;20046;-49
2021/12/05 12:36:40;;;;;;;3.10;2.78;;;9.50;73.60;;;;;;4980444;28;20459;-52
2021/12/05 12:39:16;;;;;;;3.55;2.78;;;9.60;73.30;;;;;;4987064;28;20545;-51
2021/12/05 12:42:15;;;;;;;4.38;3.33;;;9.60;73.00;;;;;;4988229;28;20034;-52
2021/12/05 12:45:20;;;;;;;6.15;4.72;;;9.70;73.10;;;;;;4971710;28;20053;-49
2021/12/05 12:47:57;;;;;;;6.53;2.80;;;9.60;72.80;;;;;;4987339;28;20226;-50
2021/12/05 12:50:34;;;;;;;4.20;2.78;;;9.70;72.60;;;;;;4979996;28;20085;-50
2021/12/05 12:53:15;;;;;;;7.68;3.15;;;9.70;72.60;;;;;;4994492;28;20132;-49
2021/12/05 12:55:55;;;;;;;6.85;3.33;;;9.70;72.50;;;;;;4986237;28;20046;-51
2021/12/05 12:58:37;;;;;;;4.30;2.45;;;9.60;72.60;;;;;;4993034;28;20046;-48
2021/12/05 13:01:32;;;;;;;3.33;2.47;;;9.60;72.80;;;;;;4975849;28;20050;-49
2021/12/05 13:10:05;;;;;;;5.53;3.60;;;9.60;73.00;;;;;;4989521;28;20046;-52
2021/12/05 13:12:40;;;;;;;7.43;5.93;;;9.60;73.10;;;;;;4983759;28;20046;-51
2021/12/05 13:15:10;;;;;;;5.88;3.88;;;9.70;73.20;;;;;;4979936;28;20045;-50
2021/12/05 13:17:43;;;;;;;4.85;4.00;;;9.70;73.10;;;;;;4993833;28;20457;-51
2021/12/05 13:20:20;;;;;;;4.50;4.03;;;9.70;73.00;;;;;;4986907;28;20085;-48
2021/12/05 13:23:17;;;;;;;8.13;4.45;;;9.60;73.00;;;;;;4983044;28;20042;-50
2021/12/05 13:26:32;;;;;;;6.53;4.13;;;9.60;72.90;;;;;;4976614;28;20034;-49
2021/12/05 13:29:18;;;;;;;6.57;4.78;;;9.60;73.10;;;;;;4990599;28;20510;-48
2021/12/05 13:31:56;;;;;;;5.03;4.53;;;9.60;73.10;;;;;;4981897;28;20580;-49
2021/12/05 13:34:28;;;;;;;6.43;4.65;;;9.60;73.20;;;;;;4988782;28;20045;-48
2021/12/05 13:37:22;;;;;;;11.02;7.15;;;9.60;73.40;;;;;;4983431;28;20038;-50
2021/12/05 13:40:10;;;;;;;9.60;7.32;;;9.60;73.50;;;;;;4972484;28;20111;-48
2021/12/05 13:42:42;;;;;;;9.15;6.47;;;9.60;73.60;;;;;;4977816;28;20070;-48
2021/12/05 13:45:17;;;;;;;8.68;6.05;;;9.60;73.70;;;;;;4971494;28;20046;-48
2021/12/05 13:47:47;;;;;;;5.95;5.28;;;9.60;73.90;;;;;;4983739;28;20044;-51
2021/12/05 13:50:25;;;;;;;5.78;4.90;;;9.60;73.90;;;;;;4982695;28;20097;-48
2021/12/05 13:52:55;;;;;;;7.20;4.07;;;9.60;73.90;;;;;;4983773;28;20054;-48
2021/12/05 13:55:39;;;;;;;6.15;4.07;;;9.60;74.00;;;;;;4980412;28;20038;-49
2021/12/05 13:58:24;;;;;;;5.05;4.32;;;9.70;74.00;;;;;;4991086;28;20410;-48
2021/12/05 14:01:14;;;;;;;3.30;3.00;;;9.70;74.00;;;;;;4983285;28;20415;-49
2021/12/05 14:04:08;;;;;;;4.10;2.42;;;9.70;73.90;;;;;;4996708;28;20073;-49
2021/12/05 14:06:54;;;;;;;3.75;2.90;;;9.70;73.70;;;;;;4982303;28;20034;-48
2021/12/05 14:09:36;;;;;;;3.05;2.50;;;9.70;73.70;;;;;;4985429;28;20054;-49
2021/12/05 14:12:24;;;;;;;4.07;3.17;;;9.70;73.60;;;;;;4981342;28;20042;-48
2021/12/05 14:14:55;;;;;;;4.15;3.30;;;9.70;73.60;;;;;;4975907;28;20719;-50
2021/12/05 14:17:29;;;;;;;3.50;3.10;;;9.70;73.60;;;;;;4984276;28;20046;-49
2021/12/05 14:20:19;;;;;;;4.55;3.55;;;9.70;73.60;;;;;;4966177;28;20854;-49
2021/12/05 14:22:48;;;;;;;5.43;4.10;;;9.70;73.60;;;;;;4984962;28;20050;-49
2021/12/05 14:25:22;;;;;;;5.07;3.90;;;9.80;73.70;;;;;;4987220;28;20069;-49
2021/12/05 14:27:58;;;;;;;3.63;3.40;;;9.80;73.70;;;;;;4986755;28;20038;-50
2021/12/05 14:30:29;;;;;;;4.25;3.85;;;9.80;73.70;;;;;;4981402;28;20568;-50
2021/12/05 14:33:02;;;;;;;3.40;2.97;;;9.80;73.70;;;;;;4990994;28;20050;-46
2021/12/05 14:35:39;;;;;;;7.45;3.67;;;9.80;73.70;;;;;;4986257;28;20565;-48
2021/12/05 14:38:08;;;;;;;6.13;3.45;;;9.90;73.60;;;;;;4982606;28;20064;-49
2021/12/05 14:40:37;;;;;;;3.80;3.40;;;9.90;73.60;;;;;;4979677;28;20034;-49
2021/12/05 14:43:07;;;;;;;4.00;3.42;;;9.90;73.50;;;;;;4991322;28;20041;-48
2021/12/05 14:45:40;;;;;;;4.93;3.22;;;9.90;73.30;;;;;;4977716;28;20030;-49
2021/12/05 14:48:11;;;;;;;6.38;3.80;;;9.90;73.10;;;;;;4978855;28;20030;-48
2021/12/05 14:50:51;;;;;;;4.00;3.70;;;9.90;72.80;;;;;;4979518;28;20509;-49
2021/12/05 14:53:19;;;;;;;4.70;4.28;;;9.90;72.90;;;;;;4995552;28;20124;-48
2021/12/05 14:55:47;;;;;;;4.38;3.97;;;9.80;72.90;;;;;;4981485;28;20084;-49
2021/12/05 14:58:16;;;;;;;6.10;4.07;;;9.80;72.90;;;;;;4980355;28;20043;-48
2021/12/05 15:00:51;;;;;;;5.15;3.60;;;9.80;73.00;;;;;;4977148;28;20764;-50
2021/12/05 15:03:30;;;;;;;4.55;3.88;;;9.70;73.10;;;;;;4994934;28;20560;-48
2021/12/05 15:06:00;;;;;;;22.25;15.80;;;9.80;73.20;;;;;;4985272;28;20051;-50
2021/12/05 15:08:31;;;;;;;29.70;22.67;;;9.70;73.20;;;;;;4989058;28;20045;-49
2021/12/05 15:11:01;;;;;;;40.20;26.08;;;9.70;73.20;;;;;;4981067;28;20051;-49
2021/12/05 15:13:29;;;;;;;31.15;18.55;;;9.70;73.30;;;;;;4991321;28;20130;-50
2021/12/05 15:15:57;;;;;;;21.70;15.43;;;9.60;73.30;;;;;;4981084;28;20124;-51
2021/12/05 15:18:29;;;;;;;19.23;12.90;;;9.60;73.40;;;;;;4982003;28;20046;-50
2021/12/05 15:20:57;;;;;;;18.58;11.02;;;9.60;73.40;;;;;;4982468;28;20043;-50
2021/12/05 15:23:29;;;;;;;10.90;6.75;;;9.60;73.50;;;;;;4992126;28;20034;-48
2021/12/05 15:26:00;;;;;;;8.45;6.82;;;9.60;73.50;;;;;;4975880;28;20165;-48
2021/12/05 15:28:27;;;;;;;7.20;6.50;;;9.50;73.50;;;;;;4992772;28;20038;-48
2021/12/05 15:30:54;;;;;;;5.72;4.25;;;9.50;73.50;;;;;;4981158;28;20070;-51
2021/12/05 15:33:24;;;;;;;8.60;7.80;;;9.50;73.60;;;;;;4987631;28;20465;-48
2021/12/05 15:35:52;;;;;;;7.30;5.97;;;9.50;73.60;;;;;;4987317;28;20054;-48
2021/12/05 15:38:24;;;;;;;5.47;4.97;;;9.40;73.70;;;;;;4993329;28;20153;-53
2021/12/05 15:40:55;;;;;;;6.20;4.43;;;9.40;73.70;;;;;;4980346;28;20402;-49
2021/12/05 15:43:25;;;;;;;4.78;4.28;;;9.40;73.70;;;;;;4996280;28;20060;-48
2021/12/05 15:45:55;;;;;;;4.68;4.18;;;9.40;73.70;;;;;;4980798;28;20608;-50
2021/12/05 15:48:31;;;;;;;6.07;5.47;;;9.30;73.60;;;;;;4993656;28;20050;-52
2021/12/05 15:51:01;;;;;;;9.90;6.90;;;9.30;73.70;;;;;;4983384;28;20125;-50
2021/12/05 15:53:31;;;;;;;9.07;7.18;;;9.30;73.70;;;;;;4995706;28;20038;-48
2021/12/05 15:56:02;;;;;;;7.47;6.68;;;9.30;73.80;;;;;;4981113;28;20097;-51
2021/12/05 15:58:38;;;;;;;7.10;6.40;;;9.30;73.90;;;;;;5002832;28;20042;-49
2021/12/05 16:01:13;;;;;;;5.78;4.88;;;9.20;73.80;;;;;;4969095;28;20042;-50
2021/12/05 16:03:53;;;;;;;5.10;4.70;;;9.20;73.90;;;;;;4981035;28;20030;-50
2021/12/05 16:06:29;;;;;;;5.15;4.20;;;9.20;73.90;;;;;;4975894;28;20499;-48
2021/12/05 16:08:57;;;;;;;5.03;4.63;;;9.10;73.90;;;;;;5001702;28;20433;-48
2021/12/05 16:11:24;;;;;;;4.25;3.85;;;9.10;74.00;;;;;;4977332;28;20112;-50
2021/12/05 16:13:53;;;;;;;5.20;4.35;;;9.10;74.00;;;;;;4993995;28;20046;-49
2021/12/05 16:16:28;;;;;;;4.38;3.97;;;9.10;74.00;;;;;;4978795;28;20054;-48
2021/12/05 16:18:59;;;;;;;5.10;4.47;;;9.10;74.10;;;;;;4985796;28;20073;-49
2021/12/05 16:21:28;;;;;;;5.80;4.05;;;9.10;74.10;;;;;;4974299;28;20384;-47
2021/12/05 16:24:07;;;;;;;6.32;4.45;;;9.10;74.20;;;;;;4986181;28;20038;-49
2021/12/05 16:26:35;;;;;;;6.28;5.10;;;9.00;74.10;;;;;;4980603;28;20064;-49
2021/12/05 16:29:11;;;;;;;5.22;4.70;;;9.00;74.00;;;;;;4992093;28;20092;-47
2021/12/05 16:31:46;;;;;;;4.80;4.40;;;9.00;74.00;;;;;;4974522;28;20041;-48
2021/12/05 16:34:21;;;;;;;4.57;4.05;;;9.00;74.10;;;;;;4977386;28;20049;-48
2021/12/05 16:36:52;;;;;;;4.68;4.28;;;9.00;74.20;;;;;;5000697;28;20050;-51
2021/12/05 16:39:33;;;;;;;4.60;4.20;;;8.90;74.20;;;;;;4990755;28;20046;-47
2021/12/05 16:42:11;;;;;;;4.70;3.85;;;8.90;74.30;;;;;;4980678;28;20046;-49
2021/12/05 16:44:49;;;;;;;4.38;3.95;;;8.90;74.40;;;;;;4975733;28;20069;-48
2021/12/05 16:47:18;;;;;;;5.15;4.38;;;8.90;74.40;;;;;;4982875;28;20035;-48
2021/12/05 16:49:52;;;;;;;8.10;7.30;;;8.90;74.50;;;;;;4975607;28;20050;-49
2021/12/05 16:52:20;;;;;;;13.18;11.80;;;8.90;74.60;;;;;;4986758;28;20042;-51
2021/12/05 16:54:53;;;;;;;13.70;12.35;;;8.90;74.70;;;;;;4991950;28;20051;-48
2021/12/05 16:57:24;;;;;;;14.75;13.35;;;8.90;74.70;;;;;;4999131;28;20639;-52
2021/12/05 16:59:58;;;;;;;15.15;13.75;;;8.90;74.70;;;;;;4972531;28;20046;-48
2021/12/05 17:02:30;;;;;;;12.45;11.20;;;8.90;74.80;;;;;;4993066;28;20097;-49
2021/12/05 17:05:24;;;;;;;9.07;7.97;;;8.90;74.80;;;;;;4986892;28;20075;-49
2021/12/05 17:08:09;;;;;;;5.28;4.82;;;8.90;74.80;;;;;;4987112;28;20188;-51
2021/12/05 17:10:56;;;;;;;5.25;4.75;;;8.90;74.80;;;;;;4975198;28;20571;-47
2021/12/05 17:13:48;;;;;;;5.28;4.53;;;8.90;74.80;;;;;;4989150;28;20107;-48
2021/12/05 17:16:15;;;;;;;5.25;4.38;;;8.90;74.80;;;;;;4971242;28;20046;-48
2021/12/05 17:18:56;;;;;;;6.22;4.50;;;8.90;74.80;;;;;;4990171;28;20042;-48
2021/12/05 17:21:23;;;;;;;6.28;4.35;;;8.90;74.80;;;;;;4971017;28;20051;-48
2021/12/05 17:24:01;;;;;;;11.70;9.10;;;8.90;74.80;;;;;;4997036;28;20104;-47
2021/12/05 17:26:42;;;;;;;9.05;6.35;;;8.90;74.90;;;;;;4967215;28;20039;-48
2021/12/05 17:29:12;;;;;;;6.57;5.93;;;8.90;74.80;;;;;;4987774;28;20399;-48
2021/12/05 17:31:50;;;;;;;6.90;5.13;;;8.90;74.90;;;;;;4974983;28;20429;-51
2021/12/05 17:34:24;;;;;;;6.45;5.20;;;8.80;74.90;;;;;;4977393;28;20068;-49
2021/12/05 17:36:56;;;;;;;6.95;6.30;;;8.90;75.00;;;;;;4985847;28;20045;-48
2021/12/05 17:39:32;;;;;;;5.72;4.70;;;8.80;74.90;;;;;;4979502;28;20077;-49
2021/12/05 17:42:12;;;;;;;6.40;5.50;;;8.80;75.00;;;;;;4978865;28;20418;-48
2021/12/05 17:44:40;;;;;;;5.68;5.05;;;8.80;75.00;;;;;;4966981;28;20368;-47
2021/12/05 17:47:11;;;;;;;6.50;5.47;;;8.90;75.10;;;;;;4978776;28;20491;-48
2021/12/05 17:49:41;;;;;;;7.15;6.32;;;8.90;75.10;;;;;;4989020;28;20054;-51
2021/12/05 17:52:10;;;;;;;7.35;6.65;;;8.90;75.10;;;;;;4998909;28;20495;-50
2021/12/05 17:55:06;;;;;;;8.07;7.00;;;8.90;75.10;;;;;;4961516;28;20731;-49
2021/12/05 17:57:36;;;;;;;7.13;6.43;;;8.90;75.20;;;;;;4984268;28;20043;-47
2021/12/05 18:00:15;;;;;;;7.88;6.97;;;8.90;75.10;;;;;;4975927;28;20470;-48
2021/12/05 18:02:48;;;;;;;12.68;9.18;;;8.80;75.00;;;;;;4975684;28;20034;-49
2021/12/05 18:05:21;;;;;;;7.07;6.38;;;8.90;75.00;;;;;;4975253;28;20076;-52
2021/12/05 18:07:50;;;;;;;5.95;4.88;;;8.90;75.00;;;;;;4985977;28;20502;-49
2021/12/05 18:10:20;;;;;;;7.72;6.50;;;8.80;75.00;;;;;;4975741;28;20038;-48
2021/12/05 18:12:50;;;;;;;10.40;8.48;;;8.80;75.00;;;;;;4983874;28;20420;-50
2021/12/05 18:15:49;;;;;;;12.85;10.98;;;8.80;75.00;;;;;;4972002;28;20125;-48
2021/12/05 18:18:17;;;;;;;14.50;9.60;;;8.80;75.00;;;;;;4991971;28;20053;-52
2021/12/05 18:20:44;;;;;;;10.93;8.20;;;8.80;75.00;;;;;;4980817;28;20035;-48
2021/12/05 18:23:12;;;;;;;12.55;9.15;;;8.80;75.00;;;;;;4987338;28;20104;-49
2021/12/05 18:25:40;;;;;;;11.13;8.38;;;8.80;74.90;;;;;;4973515;28;20043;-50
2021/12/05 18:28:07;;;;;;;12.05;9.35;;;8.80;75.00;;;;;;4992505;28;20042;-49
2021/12/05 18:30:36;;;;;;;10.35;8.18;;;8.80;74.90;;;;;;4980786;28;20086;-51
2021/12/05 18:33:07;;;;;;;11.10;8.35;;;8.80;74.90;;;;;;4990880;28;20050;-49
2021/12/05 18:35:34;;;;;;;9.77;8.02;;;8.80;74.80;;;;;;4977687;28;20054;-47
2021/12/05 18:38:06;;;;;;;9.05;8.02;;;8.80;74.80;;;;;;4995672;28;20042;-49
2021/12/05 18:40:34;;;;;;;9.05;8.25;;;8.80;74.80;;;;;;4990726;28;20034;-47
2021/12/05 18:43:01;;;;;;;9.85;8.00;;;8.80;74.80;;;;;;4976893;28;20066;-49
2021/12/05 18:45:31;;;;;;;9.25;8.30;;;8.80;74.80;;;;;;4993292;28;20536;-49
2021/12/05 18:47:59;;;;;;;9.88;8.88;;;8.80;74.80;;;;;;5003232;28;20093;-50
2021/12/05 18:50:28;;;;;;;8.88;8.05;;;8.80;74.80;;;;;;4992899;28;20415;-49
2021/12/05 18:52:55;;;;;;;10.25;9.15;;;8.80;74.90;;;;;;4991147;28;20046;-52
2021/12/05 18:55:22;;;;;;;10.23;9.05;;;8.80;74.90;;;;;;5002091;28;20104;-49
2021/12/05 18:57:58;;;;;;;11.60;9.38;;;8.80;74.90;;;;;;5003261;28;20107;-51
2021/12/05 19:00:39;;;;;;;10.82;9.75;;;8.80;74.90;;;;;;5002072;28;20034;-51
2021/12/05 19:06:05;;;;;;;9.82;7.95;;;8.80;74.90;;;;;;4993193;28;20080;-52